Time;durP1;ratioP1;P1;durP2;ratioP2;P2;SDS_P1;SDS_P2;PMS_P1;PMS_P2;Temp;Humidity;BMP_temperature;BMP_pressure;BME280_temperature;BME280_humidity;BME280_pressure;Samples;Min_cycle;Max_cycle;Signal;HPM_P1;HPM_P2
2022/08/13 00:00:59;;;;;;;9.20;5.90;;;;;;;21.64;75.45;100711.52;104083;1278;94629;-69
2022/08/13 00:03:29;;;;;;;8.40;5.70;;;;;;;21.60;75.60;100711.96;104140;1278;139190;-71
2022/08/13 00:06:26;;;;;;;8.70;5.50;;;;;;;21.53;75.64;100714.95;104126;1277;99545;-69
2022/08/13 00:08:56;;;;;;;9.90;5.70;;;;;;;21.52;75.87;100716.05;104101;1277;139005;-69
2022/08/13 00:14:35;;;;;;;8.00;5.80;;;;;;;21.53;75.66;100716.26;103998;1277;138653;-70
2022/08/13 00:17:12;;;;;;;9.10;5.90;;;;;;;21.42;75.87;100719.83;104061;1277;107369;-70
2022/08/13 00:19:44;;;;;;;8.30;5.40;;;;;;;21.43;76.02;100715.79;104492;1277;99951;-69
2022/08/13 00:22:22;;;;;;;8.40;5.90;;;;;;;21.44;75.96;100720.79;103962;1278;138563;-70
2022/08/13 00:25:00;;;;;;;8.80;5.80;;;;;;;21.40;76.20;100720.71;104120;1277;94255;-70
2022/08/13 00:27:28;;;;;;;8.90;5.70;;;;;;;21.34;76.28;100718.33;103951;1277;138793;-70
2022/08/13 00:30:18;;;;;;;9.90;5.90;;;;;;;21.32;76.38;100708.41;104050;1277;108538;-70
2022/08/13 00:33:01;;;;;;;8.60;5.50;;;;;;;21.42;76.14;100700.52;103998;1277;138836;-71
2022/08/13 00:35:31;;;;;;;8.20;5.80;;;;;;;21.45;76.00;100695.02;104254;1277;108881;-69
2022/08/13 00:38:12;;;;;;;8.50;6.00;;;;;;;21.51;75.72;100693.02;104077;1277;95586;-68
2022/08/13 00:40:46;;;;;;;9.80;6.20;;;;;;;21.51;75.52;100694.13;103985;1277;139652;-70
2022/08/13 00:43:25;;;;;;;9.20;6.00;;;;;;;21.51;75.42;100686.91;104143;1277;108547;-69
2022/08/13 00:45:54;;;;;;;8.20;5.80;;;;;;;21.52;75.58;100686.09;103816;1277;138632;-69
2022/08/13 00:51:21;;;;;;;8.10;5.60;;;;;;;21.53;75.50;100680.81;103954;1277;139208;-70
2022/08/13 00:54:18;;;;;;;8.30;5.90;;;;;;;21.57;75.33;100675.86;104138;1278;94325;-70
2022/08/13 00:56:48;;;;;;;7.70;5.70;;;;;;;21.52;75.57;100684.13;104032;1277;141768;-70
2022/08/13 00:59:16;;;;;;;8.10;5.40;;;;;;;21.50;75.49;100682.98;104193;1277;99436;-68
2022/08/13 01:01:47;;;;;;;8.60;5.60;;;;;;;21.53;75.55;100675.19;104127;1278;108747;-69
2022/08/13 01:04:21;;;;;;;8.80;5.60;;;;;;;21.59;75.40;100672.69;104181;1275;138738;-69
2022/08/13 01:06:56;;;;;;;8.00;5.70;;;;;;;21.64;75.15;100670.30;104255;1277;94316;-70
2022/08/13 01:09:29;;;;;;;8.10;6.00;;;;;;;21.67;74.78;100669.20;105052;1277;138214;-69
2022/08/13 01:12:21;;;;;;;8.80;6.10;;;;;;;21.67;74.65;100663.56;104296;1277;99837;-69
2022/08/13 01:14:56;;;;;;;9.00;5.60;;;;;;;21.68;74.71;100663.36;104174;1277;139510;-69
2022/08/13 01:17:27;;;;;;;8.20;5.30;;;;;;;21.70;74.50;100660.64;104203;1277;94413;-69
2022/08/13 01:20:20;;;;;;;8.20;6.30;;;;;;;21.76;74.21;100653.95;104295;1277;95738;-69
2022/08/13 01:23:02;;;;;;;9.30;6.00;;;;;;;21.74;74.07;100657.14;104101;1278;106694;-70
2022/08/13 01:25:32;;;;;;;9.80;6.10;;;;;;;21.66;74.41;100653.92;104071;1278;99967;-71
2022/08/13 01:28:27;;;;;;;8.60;6.10;;;;;;;21.57;74.77;100653.79;104019;1278;138602;-69
2022/08/13 01:31:01;;;;;;;8.60;6.10;;;;;;;21.50;74.97;100660.57;104233;1278;94327;-70
2022/08/13 01:33:29;;;;;;;8.30;5.60;;;;;;;21.42;75.05;100659.14;104049;1277;138735;-70
2022/08/13 01:36:15;;;;;;;8.10;5.90;;;;;;;21.41;75.27;100662.11;104168;1277;107472;-70
2022/08/13 01:38:45;;;;;;;9.10;6.20;;;;;;;21.44;75.28;100660.65;104023;1277;138399;-69
2022/08/13 01:41:13;;;;;;;8.20;6.00;;;;;;;21.42;75.36;100657.88;104085;1277;108779;-67
2022/08/13 01:43:44;;;;;;;8.50;5.80;;;;;;;21.38;75.34;100655.06;104149;1278;94500;-69
2022/08/13 01:46:12;;;;;;;8.70;5.30;;;;;;;21.36;75.29;100649.80;104053;1278;138404;-69
2022/08/13 01:51:36;;;;;;;6.90;5.00;;;;;;;21.40;75.31;100650.98;103471;1278;138671;-70
2022/08/13 01:54:11;;;;;;;7.40;5.10;;;;;;;21.40;75.22;100648.98;104142;1278;109411;-69
2022/08/13 01:57:01;;;;;;;7.80;4.90;;;;;;;21.39;75.19;100651.06;103938;1277;138752;-69
2022/08/13 01:59:34;;;;;;;8.40;5.00;;;;;;;21.32;75.25;100648.58;104104;1278;94380;-71
2022/08/13 02:02:25;;;;;;;7.50;5.50;;;;;;;21.29;75.35;100646.09;104120;1278;108451;-70
2022/08/13 02:05:11;;;;;;;8.20;5.30;;;;;;;21.25;75.51;100646.00;104120;1278;100617;-70
2022/08/13 02:08:00;;;;;;;8.10;5.10;;;;;;;21.20;75.63;100642.20;104074;1278;108269;-71
2022/08/13 02:10:37;;;;;;;8.50;5.30;;;;;;;21.19;75.73;100642.59;104009;1277;138986;-69
2022/08/13 02:13:11;;;;;;;8.10;5.20;;;;;;;21.23;75.74;100642.91;104300;1278;94352;-68
2022/08/13 02:15:46;;;;;;;8.40;5.30;;;;;;;21.18;75.79;100643.95;103998;1277;138516;-69
2022/08/13 02:18:21;;;;;;;8.60;5.40;;;;;;;21.12;75.93;100645.95;104152;1278;99116;-69
2022/08/13 02:20:54;;;;;;;7.90;5.40;;;;;;;21.07;76.18;100648.98;103987;1278;209475;-69
2022/08/13 02:23:27;;;;;;;7.50;5.50;;;;;;;21.06;76.55;100644.37;104121;1277;94429;-69
2022/08/13 02:26:19;;;;;;;7.70;5.30;;;;;;;21.07;76.57;100645.23;104132;1277;94387;-70
2022/08/13 02:28:57;;;;;;;8.20;5.30;;;;;;;21.05;76.44;100646.02;104161;1277;107714;-69
2022/08/13 02:31:26;;;;;;;7.60;5.30;;;;;;;21.10;76.41;100648.63;104228;1277;99605;-69
2022/08/13 02:34:14;;;;;;;7.50;5.30;;;;;;;21.08;76.54;100651.11;103954;1278;138892;-69
2022/08/13 02:36:47;;;;;;;8.50;5.00;;;;;;;21.02;76.78;100651.29;104053;1278;94155;-69
2022/08/13 02:39:36;;;;;;;7.20;5.20;;;;;;;21.01;76.85;100645.95;103960;1277;138505;-68
2022/08/13 02:42:12;;;;;;;9.30;5.20;;;;;;;21.08;76.86;100645.16;104119;1277;108556;-70
2022/08/13 02:44:49;;;;;;;8.10;5.80;;;;;;;21.15;76.45;100644.65;104057;1277;138766;-68
2022/08/13 02:47:20;;;;;;;7.80;5.10;;;;;;;21.18;76.23;100641.24;104184;1277;109085;-69
2022/08/13 02:50:02;;;;;;;7.70;5.00;;;;;;;21.24;75.76;100637.77;104202;1277;94853;-68
2022/08/13 02:52:31;;;;;;;7.90;5.30;;;;;;;21.26;75.65;100641.75;104060;1277;138503;-70
2022/08/13 02:55:01;;;;;;;8.70;5.20;;;;;;;21.33;75.51;100638.06;104141;1277;108475;-69
2022/08/13 02:57:29;;;;;;;8.30;5.10;;;;;;;21.33;75.18;100631.20;104042;1278;138331;-69
2022/08/13 03:00:00;;;;;;;7.70;5.30;;;;;;;21.27;75.05;100628.55;104159;1277;107480;-69
2022/08/13 03:02:44;;;;;;;7.10;4.90;;;;;;;21.28;74.82;100626.29;103925;1278;138774;-69
2022/08/13 03:05:19;;;;;;;8.30;4.90;;;;;;;21.29;74.80;100626.44;104297;1277;94740;-69
2022/08/13 03:07:49;;;;;;;7.60;5.10;;;;;;;21.28;74.72;100624.86;104134;1277;108431;-69
2022/08/13 03:10:23;;;;;;;7.70;4.80;;;;;;;21.27;74.47;100625.05;104013;1277;138642;-69
2022/08/13 03:13:17;;;;;;;7.00;4.90;;;;;;;21.27;74.32;100621.70;104187;1278;108324;-69
2022/08/13 03:15:53;;;;;;;7.90;5.30;;;;;;;21.23;74.70;100617.77;104104;1277;137802;-69
2022/08/13 03:18:30;;;;;;;7.70;5.50;;;;;;;21.21;74.47;100615.00;104210;1277;94650;-68
2022/08/13 03:21:20;;;;;;;10.10;5.70;;;;;;;21.18;74.41;100611.45;104173;1277;138491;-69
2022/08/13 03:24:13;;;;;;;8.00;6.10;;;;;;;21.18;74.66;100607.48;104276;1277;99719;-69
2022/08/13 03:26:50;;;;;;;8.40;4.90;;;;;;;21.18;74.39;100602.23;104084;1277;138700;-69
2022/08/13 03:29:23;;;;;;;8.00;5.40;;;;;;;21.20;74.30;100606.63;104170;1277;94334;-69
2022/08/13 03:32:13;;;;;;;8.50;5.00;;;;;;;21.21;73.99;100605.44;104345;1277;94301;-69
2022/08/13 03:34:44;;;;;;;7.30;5.30;;;;;;;21.19;73.78;100608.81;104236;1277;138240;-71
2022/08/13 03:37:12;;;;;;;8.50;5.30;;;;;;;21.20;73.86;100605.84;104573;1277;99385;-70
2022/08/13 03:39:42;;;;;;;7.50;5.10;;;;;;;21.17;73.62;100604.59;104291;1277;138396;-70
2022/08/13 03:42:10;;;;;;;7.80;4.70;;;;;;;21.18;73.60;100600.60;104285;1277;95616;-69
2022/08/13 03:44:40;;;;;;;8.60;4.90;;;;;;;21.18;73.66;100600.20;104140;1277;138606;-69
2022/08/13 03:47:08;;;;;;;7.50;4.90;;;;;;;21.16;73.24;100605.10;104247;1278;108330;-69
2022/08/13 03:49:57;;;;;;;7.70;5.00;;;;;;;21.10;73.60;100607.63;104403;1277;98375;-69
2022/08/13 03:52:28;;;;;;;7.50;5.30;;;;;;;21.08;73.34;100608.52;104182;1278;138440;-68
2022/08/13 03:55:18;;;;;;;7.20;4.90;;;;;;;21.05;73.66;100607.94;104158;1277;94729;-68
2022/08/13 03:57:48;;;;;;;7.80;5.30;;;;;;;21.06;73.55;100608.84;104104;1277;138501;-68
2022/08/13 04:00:40;;;;;;;7.90;4.90;;;;;;;21.10;73.40;100604.77;104219;1278;107280;-70
2022/08/13 04:03:16;;;;;;;7.90;5.40;;;;;;;21.05;73.55;100604.52;104259;1277;139041;-70
2022/08/13 04:05:44;;;;;;;7.90;5.00;;;;;;;21.04;73.44;100608.76;104190;1277;110318;-69
2022/08/13 04:08:30;;;;;;;7.30;5.10;;;;;;;21.05;73.62;100612.69;104237;1277;94704;-68
2022/08/13 04:11:00;;;;;;;8.50;5.80;;;;;;;21.04;73.72;100613.99;104313;1277;94724;-69
2022/08/13 04:13:36;;;;;;;7.10;5.40;;;;;;;21.02;73.84;100612.50;104285;1278;108365;-70
2022/08/13 04:16:25;;;;;;;8.20;5.70;;;;;;;21.00;73.56;100616.46;104076;1278;138948;-70
2022/08/13 04:19:03;;;;;;;9.00;5.80;;;;;;;21.00;73.57;100622.36;104292;1277;108847;-69
2022/08/13 04:21:44;;;;;;;7.70;5.50;;;;;;;21.07;73.46;100626.09;104090;1277;138670;-68
2022/08/13 04:24:12;;;;;;;8.20;5.70;;;;;;;21.10;72.98;100626.59;104228;1277;94647;-68
2022/08/13 04:26:43;;;;;;;9.40;6.00;;;;;;;21.08;73.00;100620.77;104294;1277;137434;-68
2022/08/13 04:29:14;;;;;;;8.40;5.70;;;;;;;21.07;73.17;100624.98;104421;1277;99479;-68
2022/08/13 04:31:48;;;;;;;8.10;5.80;;;;;;;21.07;73.13;100624.63;104392;1277;108771;-68
2022/08/13 04:34:21;;;;;;;8.10;5.80;;;;;;;21.09;73.40;100629.39;104214;1277;139034;-69
2022/08/13 04:37:10;;;;;;;8.80;6.00;;;;;;;20.99;73.65;100632.58;104233;1278;94191;-69
2022/08/13 04:39:51;;;;;;;8.50;5.70;;;;;;;20.93;73.95;100631.14;104294;1278;138981;-69
2022/08/13 04:42:49;;;;;;;8.40;5.90;;;;;;;20.93;74.06;100629.52;104353;1277;99548;-69
2022/08/13 04:45:18;;;;;;;7.50;5.40;;;;;;;20.91;74.14;100627.30;104288;1277;138531;-70
2022/08/13 04:47:59;;;;;;;7.60;5.60;;;;;;;20.96;74.33;100623.92;105386;1277;94791;-68
2022/08/13 04:50:31;;;;;;;8.70;6.00;;;;;;;20.94;74.42;100627.29;104108;1277;138049;-68
2022/08/13 04:53:08;;;;;;;9.80;5.90;;;;;;;20.92;74.10;100626.88;104740;1277;107563;-68
2022/08/13 04:55:37;;;;;;;8.10;5.30;;;;;;;20.95;73.99;100625.61;104286;1277;99497;-68
2022/08/13 04:58:35;;;;;;;8.60;5.70;;;;;;;20.97;74.20;100621.88;104112;1277;139524;-68
2022/08/13 05:01:09;;;;;;;7.60;5.40;;;;;;;20.96;73.97;100623.21;104544;1277;94229;-69
2022/08/13 05:03:57;;;;;;;10.10;5.60;;;;;;;20.98;74.01;100619.29;104148;1278;139599;-69
2022/08/13 05:06:45;;;;;;;9.20;5.60;;;;;;;20.88;73.86;100611.82;104310;1277;108366;-70
2022/08/13 05:09:19;;;;;;;9.20;5.60;;;;;;;20.90;73.77;100611.29;104195;1277;139171;-69
2022/08/13 05:11:58;;;;;;;9.30;5.20;;;;;;;20.92;73.42;100611.02;104348;1277;109274;-70
2022/08/13 05:14:35;;;;;;;8.20;5.30;;;;;;;20.81;73.23;100614.60;104121;1277;138953;-69
2022/08/13 05:17:04;;;;;;;7.60;5.60;;;;;;;20.74;73.76;100614.88;104241;1277;94331;-69
2022/08/13 05:19:32;;;;;;;7.70;5.20;;;;;;;20.82;73.96;100615.42;104173;1277;108883;-69
2022/08/13 05:22:06;;;;;;;8.10;5.00;;;;;;;20.92;73.76;100614.07;104081;1278;139260;-68
2022/08/13 05:24:53;;;;;;;8.10;4.60;;;;;;;21.03;73.67;100615.69;104264;1278;109453;-68
2022/08/13 05:27:42;;;;;;;8.40;4.90;;;;;;;21.05;73.36;100618.81;104090;1277;138844;-69
2022/08/13 05:30:14;;;;;;;8.30;5.20;;;;;;;20.97;73.48;100621.88;104236;1277;94331;-69
2022/08/13 05:32:59;;;;;;;9.70;5.00;;;;;;;20.92;73.54;100623.11;104258;1277;138704;-67
2022/08/13 05:35:33;;;;;;;9.20;5.00;;;;;;;20.89;73.35;100622.95;104364;1278;99633;-67
2022/08/13 05:38:23;;;;;;;8.70;4.60;;;;;;;20.89;73.88;100619.85;104143;1277;108792;-68
2022/08/13 05:41:02;;;;;;;10.20;5.00;;;;;;;21.03;73.99;100617.45;104137;1277;94628;-68
2022/08/13 05:43:38;;;;;;;11.10;5.20;;;;;;;21.10;73.81;100616.14;104223;1277;95532;-69
2022/08/13 05:46:09;;;;;;;7.30;4.40;;;;;;;21.15;73.76;100613.23;104039;1277;138707;-68
2022/08/13 05:48:40;;;;;;;8.50;5.20;;;;;;;21.31;73.49;100607.45;104110;1277;99995;-70
2022/08/13 05:51:13;;;;;;;7.50;4.90;;;;;;;21.43;73.27;100606.29;104045;1278;138660;-69
2022/08/13 05:53:41;;;;;;;6.80;4.60;;;;;;;21.46;73.00;100603.74;104293;1277;94392;-70
2022/08/13 05:56:35;;;;;;;9.20;4.80;;;;;;;21.48;72.67;100603.64;104030;1277;138730;-69
2022/08/13 05:59:05;;;;;;;8.40;5.20;;;;;;;21.47;72.90;100608.20;104204;1277;108315;-68
2022/08/13 06:04:26;;;;;;;10.50;5.00;;;;;;;21.57;72.85;100607.19;104076;1277;138841;-68
2022/08/13 06:07:06;;;;;;;9.20;4.80;;;;;;;21.64;72.55;100605.26;104160;1277;95771;-68
2022/08/13 06:09:34;;;;;;;9.70;5.30;;;;;;;21.76;72.34;100606.11;104119;1277;138215;-68
2022/08/13 06:12:04;;;;;;;7.00;4.90;;;;;;;21.84;71.97;100606.98;104128;1277;108498;-68
2022/08/13 06:14:56;;;;;;;7.90;5.40;;;;;;;21.89;71.71;100605.89;104045;1278;138983;-69
2022/08/13 06:17:26;;;;;;;8.50;5.10;;;;;;;21.94;71.55;100608.96;104402;1278;109189;-68
2022/08/13 06:20:04;;;;;;;8.90;5.70;;;;;;;22.02;71.02;100610.95;104183;1277;94742;-69
2022/08/13 06:22:34;;;;;;;10.40;5.60;;;;;;;22.05;71.04;100608.72;104172;1277;137862;-68
2022/08/13 06:25:05;;;;;;;8.40;5.30;;;;;;;21.94;71.29;100606.98;104237;1278;107097;-70
2022/08/13 06:27:36;;;;;;;7.90;5.20;;;;;;;21.75;71.54;100624.20;104144;1277;138657;-68
2022/08/13 06:30:25;;;;;;;8.30;5.30;;;;;;;21.45;71.66;100665.81;104335;1278;108807;-68
2022/08/13 06:33:03;;;;;;;6.50;4.70;;;;;;;21.28;72.41;100666.38;104268;1277;139359;-68
2022/08/13 06:36:00;;;;;;;7.60;5.10;;;;;;;21.13;72.66;100686.56;104372;1278;94380;-68
2022/08/13 06:38:45;;;;;;;9.10;5.60;;;;;;;20.97;72.95;100714.46;105043;1277;138943;-69
2022/08/13 06:41:20;;;;;;;8.40;4.80;;;;;;;20.87;73.44;100734.21;104454;1277;99779;-68
2022/08/13 06:43:52;;;;;;;7.70;4.30;;;;;;;20.87;73.59;100744.19;104278;1278;108868;-67
2022/08/13 06:46:31;;;;;;;8.40;5.10;;;;;;;20.74;73.49;100751.12;104065;1278;139028;-69
2022/08/13 06:49:01;;;;;;;8.20;4.40;;;;;;;20.61;74.35;100762.39;104331;1277;94348;-68
2022/08/13 06:51:33;;;;;;;8.20;4.50;;;;;;;20.39;77.05;100776.33;104363;1277;138575;-68
2022/08/13 06:54:10;;;;;;;8.20;5.30;;;;;;;20.04;79.05;100754.48;103650;1277;99813;-68
2022/08/13 06:56:59;;;;;;;8.80;5.10;;;;;;;19.76;80.51;100733.95;103227;1277;138755;-65
2022/08/13 06:59:52;;;;;;;9.50;5.80;;;;;;;19.57;81.69;100749.46;103318;1277;94332;-65
2022/08/13 07:02:43;;;;;;;9.10;6.10;;;;;;;19.50;82.11;100766.96;103373;1278;138629;-66
2022/08/13 07:05:12;;;;;;;9.80;6.10;;;;;;;19.49;82.82;100771.42;103471;1277;108361;-67
2022/08/13 07:07:48;;;;;;;9.10;6.10;;;;;;;19.47;83.22;100748.09;103644;1277;99568;-67
2022/08/13 07:10:17;;;;;;;9.80;6.20;;;;;;;19.46;83.22;100757.48;103291;1277;138520;-66
2022/08/13 07:12:45;;;;;;;10.30;6.10;;;;;;;19.45;83.23;100749.09;106304;1277;93883;-67
2022/08/13 07:15:16;;;;;;;12.40;6.40;;;;;;;19.47;83.40;100738.70;103060;1277;138682;-67
2022/08/13 07:18:06;;;;;;;9.60;6.00;;;;;;;19.52;83.52;100727.44;103398;1277;108326;-67
2022/08/13 07:20:36;;;;;;;9.90;6.30;;;;;;;19.57;83.51;100728.23;103731;1277;138966;-67
2022/08/13 07:23:05;;;;;;;9.40;6.30;;;;;;;19.62;83.59;100729.91;103567;1278;108854;-67
2022/08/13 07:26:00;;;;;;;9.40;6.80;;;;;;;19.63;83.51;100736.71;103362;1277;94330;-67
2022/08/13 07:28:29;;;;;;;9.80;6.30;;;;;;;19.62;83.44;100734.22;104467;1277;138561;-69
2022/08/13 07:31:25;;;;;;;9.70;5.90;;;;;;;19.66;83.51;100730.02;103431;1278;108268;-66
2022/08/13 07:34:13;;;;;;;8.50;5.90;;;;;;;19.63;83.86;100715.09;103335;1277;138718;-67
2022/08/13 07:36:43;;;;;;;9.70;6.40;;;;;;;19.71;84.14;100706.52;103645;1277;108866;-68
2022/08/13 07:39:25;;;;;;;9.40;6.40;;;;;;;19.75;84.43;100690.41;103448;1277;138766;-67
2022/08/13 07:41:55;;;;;;;10.30;6.70;;;;;;;19.87;84.77;100671.15;103481;1277;94556;-67
2022/08/13 07:44:31;;;;;;;9.90;7.10;;;;;;;20.01;84.94;100657.88;103627;1277;139534;-68
2022/08/13 07:47:21;;;;;;;10.30;6.60;;;;;;;20.16;84.78;100645.80;103542;1277;100076;-68
2022/08/13 07:49:57;;;;;;;10.60;6.40;;;;;;;20.28;84.80;100635.09;103532;1277;108744;-68
2022/08/13 07:52:29;;;;;;;10.00;6.70;;;;;;;20.34;84.61;100632.20;103396;1278;138866;-68
2022/08/13 07:55:00;;;;;;;10.00;7.00;;;;;;;20.40;84.80;100637.05;103450;1277;94497;-68
2022/08/13 07:57:29;;;;;;;9.80;6.30;;;;;;;20.42;84.95;100644.31;103166;1278;140929;-67
2022/08/13 08:00:09;;;;;;;11.20;7.50;;;;;;;20.51;85.35;100638.50;103979;1277;99392;-67
2022/08/13 08:02:45;;;;;;;35.40;27.10;;;;;;;20.66;85.38;100639.91;103229;1277;139482;-67
2022/08/13 08:05:14;;;;;;;9.80;7.30;;;;;;;20.74;84.74;100627.33;103452;1278;94342;-67
2022/08/13 08:07:50;;;;;;;9.00;7.00;;;;;;;20.81;84.55;100622.35;103514;1277;94329;-67
2022/08/13 08:10:37;;;;;;;9.00;6.60;;;;;;;20.88;84.90;100620.64;104154;1277;138434;-66
2022/08/13 08:13:09;;;;;;;10.30;6.60;;;;;;;20.96;85.53;100617.05;103367;1277;99511;-65
2022/08/13 08:15:42;;;;;;;8.40;5.50;;;;;;;21.00;84.68;100620.56;103880;1277;138680;-65
2022/08/13 08:18:33;;;;;;;9.10;5.40;;;;;;;20.94;84.75;100603.84;103479;1277;94318;-67
2022/08/13 08:21:23;;;;;;;7.40;5.40;;;;;;;21.00;85.35;100589.51;103249;1277;138538;-69
2022/08/13 08:24:14;;;;;;;7.30;5.00;;;;;;;21.03;85.15;100601.61;103323;1278;109104;-68
2022/08/13 08:27:01;;;;;;;7.30;4.70;;;;;;;20.96;85.06;100598.63;103352;1277;139150;-67
2022/08/13 08:29:31;;;;;;;7.70;4.80;;;;;;;20.92;85.46;100594.03;103589;1277;108876;-67
2022/08/13 08:32:20;;;;;;;18.30;14.00;;;;;;;20.96;86.51;100581.12;103442;1277;94970;-66
2022/08/13 08:35:02;;;;;;;8.00;5.20;;;;;;;21.12;87.04;100570.15;103285;1278;94335;-66
2022/08/13 08:43:27;;;;;;;6.70;4.40;;;;;;;21.32;86.55;100569.30;103397;1277;108877;-65
2022/08/13 08:46:05;;;;;;;7.60;4.90;;;;;;;21.47;86.55;100559.24;103340;1277;139190;-68
2022/08/13 08:48:42;;;;;;;7.70;4.70;;;;;;;21.72;86.62;100552.69;103434;1278;94424;-67
2022/08/13 08:51:10;;;;;;;7.40;4.90;;;;;;;21.94;86.54;100542.93;103362;1277;138604;-67
2022/08/13 08:53:49;;;;;;;6.70;4.60;;;;;;;22.16;85.90;100537.21;103284;1277;98472;-68
2022/08/13 08:56:37;;;;;;;6.80;4.50;;;;;;;22.41;85.23;100531.08;104064;1278;138652;-67
2022/08/13 08:59:35;;;;;;;7.00;4.90;;;;;;;22.66;84.99;100525.23;103338;1277;94759;-67
2022/08/13 09:02:22;;;;;;;6.70;4.80;;;;;;;22.98;85.19;100521.23;104526;1277;94231;-67
2022/08/13 09:04:57;;;;;;;7.10;4.40;;;;;;;23.26;84.89;100502.05;107189;1277;138436;-67
2022/08/13 09:07:47;;;;;;;6.90;4.60;;;;;;;23.37;83.78;100503.23;107380;1277;99586;-68
2022/08/13 09:10:19;;;;;;;7.20;5.20;;;;;;;23.48;83.45;100508.65;107287;1277;138462;-68
2022/08/13 09:13:02;;;;;;;6.30;4.10;;;;;;;23.69;83.61;100503.39;107383;1277;92844;-68
2022/08/13 09:15:39;;;;;;;6.70;4.10;;;;;;;23.77;81.64;100499.19;106259;1277;138496;-67
2022/08/13 09:18:16;;;;;;;7.70;4.80;;;;;;;23.86;81.75;100501.38;103287;1278;107206;-67
2022/08/13 09:20:45;;;;;;;7.60;5.10;;;;;;;24.03;80.83;100503.44;104267;1277;138131;-68
2022/08/13 09:23:21;;;;;;;8.40;5.40;;;;;;;24.15;80.15;100508.64;103302;1278;109057;-67
2022/08/13 09:26:10;;;;;;;7.70;5.60;;;;;;;24.25;80.32;100509.84;103383;1277;94637;-67
2022/08/13 09:28:41;;;;;;;7.60;5.40;;;;;;;24.28;81.32;100516.11;103759;1277;138051;-67
2022/08/13 09:31:13;;;;;;;8.00;5.90;;;;;;;24.37;80.55;100525.69;103404;1278;108494;-68
2022/08/13 09:33:53;;;;;;;7.70;5.40;;;;;;;24.67;80.33;100521.80;102930;1278;138930;-68
2022/08/13 09:36:31;;;;;;;7.70;5.30;;;;;;;25.13;79.64;100527.42;105494;1277;107831;-67
2022/08/13 09:39:00;;;;;;;7.80;5.70;;;;;;;25.42;78.00;100521.30;102852;1278;139051;-69
2022/08/13 09:41:33;;;;;;;7.80;6.00;;;;;;;25.80;76.93;100524.54;104390;1277;94575;-69
2022/08/13 09:44:04;;;;;;;7.80;6.10;;;;;;;27.02;73.28;100525.84;104124;1277;138791;-69
2022/08/13 09:46:45;;;;;;;8.20;5.50;;;;;;;28.03;71.48;100528.14;104147;1277;99224;-68
2022/08/13 09:49:23;;;;;;;7.30;5.80;;;;;;;28.64;68.11;100530.51;104231;1277;137955;-68
2022/08/13 09:52:11;;;;;;;8.30;5.80;;;;;;;28.76;67.62;100533.02;104259;1277;95609;-69
2022/08/13 09:54:47;;;;;;;8.00;6.10;;;;;;;28.87;68.19;100535.56;104167;1278;138685;-68
2022/08/13 09:57:20;;;;;;;7.50;5.70;;;;;;;28.66;67.75;100538.56;104344;1277;108369;-67
2022/08/13 09:59:49;;;;;;;9.30;5.60;;;;;;;28.36;68.33;100544.68;104167;1278;99833;-69
2022/08/13 10:02:24;;;;;;;8.30;6.60;;;;;;;27.80;68.33;100557.74;103194;1277;137904;-69
2022/08/13 10:04:56;;;;;;;8.40;5.50;;;;;;;27.20;69.47;100563.92;104207;1277;94807;-68
2022/08/13 10:07:25;;;;;;;7.70;5.50;;;;;;;26.80;70.53;100562.02;104160;1277;138616;-69
2022/08/13 10:09:53;;;;;;;8.40;5.90;;;;;;;26.39;70.78;100569.02;104255;1277;108507;-77
2022/08/13 10:12:42;;;;;;;70.40;63.10;;;;;;;26.33;71.49;100572.40;104273;1277;138278;-70
2022/08/13 10:15:14;;;;;;;8.20;6.00;;;;;;;26.21;71.90;100572.98;104339;1277;108624;-69
2022/08/13 10:17:53;;;;;;;7.90;5.70;;;;;;;26.01;70.74;100571.83;104339;1277;94212;-68
2022/08/13 10:20:32;;;;;;;8.00;5.60;;;;;;;25.70;71.68;100572.14;107165;1277;139257;-69
2022/08/13 10:23:01;;;;;;;8.80;6.00;;;;;;;25.49;72.26;100573.77;106318;1277;108352;-68
2022/08/13 10:25:29;;;;;;;7.90;5.70;;;;;;;25.36;72.09;100573.44;104071;1278;139494;-69
2022/08/13 10:28:17;;;;;;;7.80;5.20;;;;;;;25.10;72.25;100579.23;104226;1277;108771;-69
2022/08/13 10:31:05;;;;;;;8.30;5.50;;;;;;;24.93;74.09;100573.21;104248;1277;139292;-68
2022/08/13 10:33:53;;;;;;;7.80;5.30;;;;;;;24.95;76.49;100569.80;104214;1278;94521;-67
2022/08/13 10:36:26;;;;;;;6.90;4.90;;;;;;;25.08;76.86;100565.77;104151;1277;139366;-68
2022/08/13 10:39:05;;;;;;;8.00;5.90;;;;;;;25.25;74.48;100572.14;104247;1278;100640;-69
2022/08/13 10:41:45;;;;;;;7.70;5.70;;;;;;;25.54;73.80;100570.42;104273;1278;108004;-68
2022/08/13 10:44:31;;;;;;;7.20;4.90;;;;;;;26.81;73.02;100562.02;102796;1279;137787;-67
2022/08/13 10:46:59;;;;;;;6.50;4.80;;;;;;;28.20;67.48;100558.98;107126;1278;93355;-67
2022/08/13 10:49:29;;;;;;;7.90;4.50;;;;;;;29.05;65.49;100562.44;105192;1277;138040;-67
2022/08/13 10:52:00;;;;;;;6.80;4.30;;;;;;;29.63;62.78;100557.43;103450;1277;99256;-66
2022/08/13 10:54:33;;;;;;;6.80;4.00;;;;;;;30.11;62.64;100550.88;102724;1277;137976;-67
2022/08/13 10:57:05;;;;;;;6.10;4.20;;;;;;;30.95;62.26;100547.58;102854;1277;94317;-67
2022/08/13 10:59:36;;;;;;;6.90;3.90;;;;;;;31.63;56.20;100542.56;103107;1278;94597;-67
2022/08/13 11:02:06;;;;;;;6.60;4.20;;;;;;;31.09;56.85;100543.44;102866;1277;137826;-67
2022/08/13 11:04:45;;;;;;;6.70;4.30;;;;;;;30.00;58.20;100540.53;103089;1278;99395;-68
2022/08/13 11:07:20;;;;;;;6.80;4.30;;;;;;;29.18;60.39;100542.40;103544;1278;137857;-67
2022/08/13 11:09:50;;;;;;;7.60;4.30;;;;;;;28.69;64.33;100543.09;102944;1277;94729;-66
2022/08/13 11:12:19;;;;;;;7.30;4.10;;;;;;;28.59;64.21;100533.59;102846;1278;138284;-67
2022/08/13 11:14:51;;;;;;;7.60;4.30;;;;;;;28.42;65.98;100530.14;102903;1279;108438;-68
2022/08/13 11:17:19;;;;;;;6.00;4.20;;;;;;;28.21;66.94;100525.98;102942;1278;99014;-67
2022/08/13 11:20:17;;;;;;;6.80;4.40;;;;;;;28.19;67.28;100520.73;102821;1278;138354;-67
2022/08/13 11:22:54;;;;;;;7.10;4.60;;;;;;;27.95;66.65;100520.13;103210;1278;94847;-67
2022/08/13 11:25:23;;;;;;;6.20;4.20;;;;;;;27.81;68.67;100513.52;103236;1278;138591;-68
2022/08/13 11:28:12;;;;;;;9.10;4.50;;;;;;;27.75;67.43;100512.10;103009;1278;108365;-68
2022/08/13 11:30:47;;;;;;;6.50;4.50;;;;;;;27.60;68.66;100510.42;102912;1279;138813;-68
2022/08/13 11:33:19;;;;;;;6.50;4.20;;;;;;;27.46;67.13;100512.08;103089;1278;108680;-68
2022/08/13 11:36:08;;;;;;;5.80;4.40;;;;;;;27.20;66.68;100519.11;103200;1279;94946;-67
2022/08/13 11:38:40;;;;;;;6.60;4.60;;;;;;;27.04;69.35;100521.13;103199;1279;94535;-68
2022/08/13 11:41:08;;;;;;;6.80;5.00;;;;;;;26.89;69.78;100525.66;104402;1278;108522;-67
2022/08/13 11:43:47;;;;;;;8.00;5.20;;;;;;;26.68;68.34;100528.98;104250;1279;137950;-66
2022/08/13 11:46:25;;;;;;;8.50;5.10;;;;;;;26.45;70.06;100522.19;102841;1278;108875;-68
2022/08/13 11:48:54;;;;;;;7.70;4.50;;;;;;;26.43;70.77;100520.00;104381;1277;139781;-69
2022/08/13 11:51:44;;;;;;;7.10;5.00;;;;;;;26.32;69.04;100519.05;102922;1277;94715;-68
2022/08/13 11:54:20;;;;;;;7.20;5.00;;;;;;;26.10;69.61;100515.77;103138;1278;139553;-69
2022/08/13 11:57:05;;;;;;;8.10;5.30;;;;;;;26.07;71.86;100520.50;104346;1278;99488;-68
2022/08/13 11:59:36;;;;;;;8.60;5.20;;;;;;;26.16;71.32;100518.25;104287;1277;109379;-68
2022/08/13 12:02:13;;;;;;;9.30;5.40;;;;;;;26.23;72.41;100513.59;102795;1279;139184;-68
2022/08/13 12:04:43;;;;;;;7.70;5.00;;;;;;;26.38;72.33;100518.31;103064;1280;95595;-68
2022/08/13 12:07:23;;;;;;;7.70;5.30;;;;;;;26.45;72.27;100517.84;103038;1278;138469;-66
2022/08/13 12:09:54;;;;;;;8.00;5.20;;;;;;;26.47;71.68;100522.73;103305;1279;99344;-67
2022/08/13 12:12:26;;;;;;;7.50;4.80;;;;;;;26.38;71.68;100524.88;102880;1277;140623;-67
2022/08/13 12:14:59;;;;;;;7.60;4.90;;;;;;;26.34;71.33;100524.77;103073;1277;94700;-67